sensor_id;sensor_type;location;lat;lon;timestamp;pressure;altitude;pressure_sealevel;temperature;humidity
64683;BME280;51107;47.652;19.016;2023-09-30T00:00:00;100407.81;;;14.36;83.38
64683;BME280;51107;47.652;19.016;2023-09-30T00:02:37;100407.63;;;14.29;84.24
64683;BME280;51107;47.652;19.016;2023-09-30T00:05:06;100399.47;;;14.40;82.98
64683;BME280;51107;47.652;19.016;2023-09-30T00:07:34;100403.22;;;14.38;82.81
64683;BME280;51107;47.652;19.016;2023-09-30T00:10:03;100404.00;;;14.22;84.24
64683;BME280;51107;47.652;19.016;2023-09-30T00:12:33;100396.25;;;14.04;85.47
64683;BME280;51107;47.652;19.016;2023-09-30T00:15:04;100400.03;;;14.09;85.77
64683;BME280;51107;47.652;19.016;2023-09-30T00:17:32;100402.69;;;14.18;83.92
64683;BME280;51107;47.652;19.016;2023-09-30T00:20:00;100398.47;;;13.90;85.37
64683;BME280;51107;47.652;19.016;2023-09-30T00:22:29;100399.13;;;13.92;86.32
64683;BME280;51107;47.652;19.016;2023-09-30T00:24:57;100401.09;;;13.90;87.30
64683;BME280;51107;47.652;19.016;2023-09-30T00:27:25;100397.19;;;13.95;87.68
64683;BME280;51107;47.652;19.016;2023-09-30T00:29:54;100394.59;;;14.03;86.03
64683;BME280;51107;47.652;19.016;2023-09-30T00:32:23;100386.53;;;13.96;86.33
64683;BME280;51107;47.652;19.016;2023-09-30T00:34:51;100383.13;;;13.96;86.84
64683;BME280;51107;47.652;19.016;2023-09-30T00:37:21;100379.53;;;14.05;86.71
64683;BME280;51107;47.652;19.016;2023-09-30T00:39:49;100383.34;;;14.10;86.56
64683;BME280;51107;47.652;19.016;2023-09-30T00:42:18;100382.03;;;14.15;86.91
64683;BME280;51107;47.652;19.016;2023-09-30T00:44:48;100386.13;;;14.17;86.44
64683;BME280;51107;47.652;19.016;2023-09-30T00:47:16;100387.72;;;14.02;87.81
64683;BME280;51107;47.652;19.016;2023-09-30T00:49:45;100385.97;;;14.10;86.98
64683;BME280;51107;47.652;19.016;2023-09-30T00:52:13;100379.25;;;14.16;86.47
64683;BME280;51107;47.652;19.016;2023-09-30T00:54:42;100380.38;;;14.05;86.92
64683;BME280;51107;47.652;19.016;2023-09-30T00:57:12;100378.84;;;13.95;87.46
64683;BME280;51107;47.652;19.016;2023-09-30T00:59:41;100375.72;;;13.91;88.45
64683;BME280;51107;47.652;19.016;2023-09-30T01:02:09;100365.06;;;13.84;89.72
64683;BME280;51107;47.652;19.016;2023-09-30T01:04:38;100371.81;;;13.95;88.32
64683;BME280;51107;47.652;19.016;2023-09-30T01:07:07;100376.91;;;14.05;86.94
64683;BME280;51107;47.652;19.016;2023-09-30T01:09:35;100363.59;;;13.82;87.74
64683;BME280;51107;47.652;19.016;2023-09-30T01:12:04;100363.34;;;13.67;88.84
64683;BME280;51107;47.652;19.016;2023-09-30T01:14:34;100367.25;;;13.63;91.29
64683;BME280;51107;47.652;19.016;2023-09-30T01:17:03;100372.84;;;13.41;90.27
64683;BME280;51107;47.652;19.016;2023-09-30T01:19:31;100370.88;;;13.70;89.24
64683;BME280;51107;47.652;19.016;2023-09-30T01:22:00;100367.16;;;13.81;88.14
64683;BME280;51107;47.652;19.016;2023-09-30T01:24:30;100363.63;;;13.90;88.14
64683;BME280;51107;47.652;19.016;2023-09-30T01:26:58;100374.25;;;13.97;87.74
64683;BME280;51107;47.652;19.016;2023-09-30T01:29:27;100377.19;;;13.93;88.15
64683;BME280;51107;47.652;19.016;2023-09-30T01:31:55;100377.88;;;13.96;86.87
64683;BME280;51107;47.652;19.016;2023-09-30T01:34:23;100377.97;;;13.78;88.87
64683;BME280;51107;47.652;19.016;2023-09-30T01:36:51;100383.72;;;13.89;88.63
64683;BME280;51107;47.652;19.016;2023-09-30T01:39:20;100375.09;;;13.97;87.48
64683;BME280;51107;47.652;19.016;2023-09-30T01:41:49;100374.12;;;13.98;86.96
64683;BME280;51107;47.652;19.016;2023-09-30T01:44:17;100376.13;;;13.70;89.81
64683;BME280;51107;47.652;19.016;2023-09-30T01:46:46;100369.06;;;13.70;88.73
64683;BME280;51107;47.652;19.016;2023-09-30T01:49:14;100368.69;;;13.57;90.00
64683;BME280;51107;47.652;19.016;2023-09-30T01:51:42;100362.34;;;13.59;90.38
64683;BME280;51107;47.652;19.016;2023-09-30T01:54:11;100365.41;;;13.55;91.12
64683;BME280;51107;47.652;19.016;2023-09-30T01:56:39;100367.25;;;13.63;89.76
64683;BME280;51107;47.652;19.016;2023-09-30T01:59:07;100368.53;;;13.58;90.89
64683;BME280;51107;47.652;19.016;2023-09-30T02:01:36;100362.91;;;13.45;91.60
64683;BME280;51107;47.652;19.016;2023-09-30T02:04:04;100367.38;;;13.53;92.00
64683;BME280;51107;47.652;19.016;2023-09-30T02:06:35;100369.19;;;13.61;90.63
64683;BME280;51107;47.652;19.016;2023-09-30T02:09:04;100357.50;;;13.47;91.93
64683;BME280;51107;47.652;19.016;2023-09-30T02:11:33;100364.72;;;13.45;91.88
64683;BME280;51107;47.652;19.016;2023-09-30T02:14:02;100367.16;;;13.46;91.50
64683;BME280;51107;47.652;19.016;2023-09-30T02:16:31;100356.84;;;13.45;91.22
64683;BME280;51107;47.652;19.016;2023-09-30T02:19:00;100359.81;;;13.50;90.65
64683;BME280;51107;47.652;19.016;2023-09-30T02:21:28;100359.03;;;13.31;92.47
64683;BME280;51107;47.652;19.016;2023-09-30T02:23:56;100360.91;;;13.39;92.72
64683;BME280;51107;47.652;19.016;2023-09-30T02:26:25;100358.97;;;13.23;94.46
64683;BME280;51107;47.652;19.016;2023-09-30T02:28:55;100348.03;;;13.28;92.99
64683;BME280;51107;47.652;19.016;2023-09-30T02:31:25;100352.66;;;13.34;93.68
64683;BME280;51107;47.652;19.016;2023-09-30T02:33:53;100343.91;;;13.25;94.38
64683;BME280;51107;47.652;19.016;2023-09-30T02:36:22;100354.91;;;13.29;93.82
64683;BME280;51107;47.652;19.016;2023-09-30T02:38:51;100351.47;;;13.46;91.51
64683;BME280;51107;47.652;19.016;2023-09-30T02:41:19;100360.59;;;13.42;91.89
64683;BME280;51107;47.652;19.016;2023-09-30T02:43:48;100348.16;;;13.44;91.12
64683;BME280;51107;47.652;19.016;2023-09-30T02:46:18;100346.03;;;13.21;92.98
64683;BME280;51107;47.652;19.016;2023-09-30T02:48:47;100358.44;;;13.19;93.65
64683;BME280;51107;47.652;19.016;2023-09-30T02:51:15;100363.66;;;13.19;93.42
64683;BME280;51107;47.652;19.016;2023-09-30T02:53:43;100361.22;;;13.18;93.99
64683;BME280;51107;47.652;19.016;2023-09-30T02:56:11;100353.22;;;13.19;92.96
64683;BME280;51107;47.652;19.016;2023-09-30T02:58:39;100359.94;;;13.22;92.96
64683;BME280;51107;47.652;19.016;2023-09-30T03:01:14;100358.16;;;13.22;93.03
64683;BME280;51107;47.652;19.016;2023-09-30T03:03:44;100358.00;;;13.24;93.12
64683;BME280;51107;47.652;19.016;2023-09-30T03:06:13;100351.44;;;13.20;93.77
64683;BME280;51107;47.652;19.016;2023-09-30T03:08:42;100355.19;;;13.17;94.20
64683;BME280;51107;47.652;19.016;2023-09-30T03:11:11;100356.28;;;13.15;94.83
64683;BME280;51107;47.652;19.016;2023-09-30T03:13:40;100365.41;;;13.11;94.96
64683;BME280;51107;47.652;19.016;2023-09-30T03:16:12;100361.47;;;13.06;94.66
64683;BME280;51107;47.652;19.016;2023-09-30T03:18:40;100359.72;;;13.15;94.32
64683;BME280;51107;47.652;19.016;2023-09-30T03:21:13;100365.09;;;13.14;93.97
64683;BME280;51107;47.652;19.016;2023-09-30T03:23:43;100363.13;;;13.07;94.52
64683;BME280;51107;47.652;19.016;2023-09-30T03:26:11;100370.66;;;13.11;95.28
64683;BME280;51107;47.652;19.016;2023-09-30T03:28:40;100356.63;;;12.94;96.30
64683;BME280;51107;47.652;19.016;2023-09-30T03:31:09;100362.09;;;13.00;96.89
64683;BME280;51107;47.652;19.016;2023-09-30T03:33:38;100367.28;;;13.18;94.11
64683;BME280;51107;47.652;19.016;2023-09-30T03:36:08;100373.59;;;13.07;94.93
64683;BME280;51107;47.652;19.016;2023-09-30T03:38:37;100370.13;;;13.07;95.10
64683;BME280;51107;47.652;19.016;2023-09-30T03:41:07;100367.00;;;13.03;95.61
64683;BME280;51107;47.652;19.016;2023-09-30T03:43:36;100369.78;;;13.02;95.00
64683;BME280;51107;47.652;19.016;2023-09-30T03:46:09;100371.72;;;13.00;96.03
64683;BME280;51107;47.652;19.016;2023-09-30T03:48:39;100376.13;;;12.99;95.85
64683;BME280;51107;47.652;19.016;2023-09-30T03:51:15;100370.44;;;13.04;95.83
64683;BME280;51107;47.652;19.016;2023-09-30T03:53:46;100373.59;;;13.07;95.53
64683;BME280;51107;47.652;19.016;2023-09-30T03:56:15;100366.22;;;13.11;95.16
64683;BME280;51107;47.652;19.016;2023-09-30T03:58:44;100365.03;;;13.05;95.77
64683;BME280;51107;47.652;19.016;2023-09-30T04:01:16;100367.81;;;13.04;96.17
64683;BME280;51107;47.652;19.016;2023-09-30T04:03:45;100369.19;;;12.90;97.97
64683;BME280;51107;47.652;19.016;2023-09-30T04:06:13;100374.66;;;12.79;97.89
64683;BME280;51107;47.652;19.016;2023-09-30T04:08:42;100364.84;;;12.81;97.94
64683;BME280;51107;47.652;19.016;2023-09-30T04:11:12;100373.88;;;12.86;97.69
64683;BME280;51107;47.652;19.016;2023-09-30T04:13:47;100371.28;;;12.86;97.26
64683;BME280;51107;47.652;19.016;2023-09-30T04:16:16;100373.81;;;12.78;98.15
64683;BME280;51107;47.652;19.016;2023-09-30T04:18:46;100367.31;;;12.82;97.21
64683;BME280;51107;47.652;19.016;2023-09-30T04:21:14;100370.16;;;12.89;97.33
64683;BME280;51107;47.652;19.016;2023-09-30T04:23:43;100365.06;;;12.87;97.62
64683;BME280;51107;47.652;19.016;2023-09-30T04:26:12;100365.31;;;12.76;99.65
64683;BME280;51107;47.652;19.016;2023-09-30T04:28:40;100361.19;;;12.91;96.72
64683;BME280;51107;47.652;19.016;2023-09-30T04:31:09;100366.78;;;12.97;95.74
64683;BME280;51107;47.652;19.016;2023-09-30T04:33:38;100365.47;;;12.74;97.96
64683;BME280;51107;47.652;19.016;2023-09-30T04:36:08;100373.16;;;12.76;98.92
64683;BME280;51107;47.652;19.016;2023-09-30T04:38:37;100375.53;;;12.69;99.18
64683;BME280;51107;47.652;19.016;2023-09-30T04:41:05;100370.62;;;12.66;99.23
64683;BME280;51107;47.652;19.016;2023-09-30T04:43:36;100373.00;;;12.78;98.41
64683;BME280;51107;47.652;19.016;2023-09-30T04:46:07;100372.53;;;12.82;98.28
64683;BME280;51107;47.652;19.016;2023-09-30T04:48:36;100373.53;;;12.81;98.93
64683;BME280;51107;47.652;19.016;2023-09-30T04:51:08;100380.31;;;12.74;100.00
64683;BME280;51107;47.652;19.016;2023-09-30T04:53:37;100385.41;;;12.76;100.00
64683;BME280;51107;47.652;19.016;2023-09-30T04:56:06;100383.69;;;12.84;98.69
64683;BME280;51107;47.652;19.016;2023-09-30T04:58:34;100386.69;;;12.89;99.65
64683;BME280;51107;47.652;19.016;2023-09-30T05:01:03;100391.97;;;12.98;97.41
64683;BME280;51107;47.652;19.016;2023-09-30T05:03:31;100391.50;;;13.02;96.93
64683;BME280;51107;47.652;19.016;2023-09-30T05:06:00;100392.81;;;12.80;99.26
64683;BME280;51107;47.652;19.016;2023-09-30T05:08:29;100397.88;;;12.82;99.47
64683;BME280;51107;47.652;19.016;2023-09-30T05:10:57;100400.16;;;13.03;97.91
64683;BME280;51107;47.652;19.016;2023-09-30T05:13:25;100395.84;;;13.12;97.47
64683;BME280;51107;47.652;19.016;2023-09-30T05:15:54;100393.59;;;13.17;96.90
64683;BME280;51107;47.652;19.016;2023-09-30T05:18:22;100397.13;;;13.07;97.43
64683;BME280;51107;47.652;19.016;2023-09-30T05:20:52;100402.13;;;13.01;100.00
64683;BME280;51107;47.652;19.016;2023-09-30T05:23:20;100399.66;;;13.17;98.38
64683;BME280;51107;47.652;19.016;2023-09-30T05:25:49;100392.00;;;13.24;96.97
64683;BME280;51107;47.652;19.016;2023-09-30T05:28:17;100397.03;;;13.35;96.18
64683;BME280;51107;47.652;19.016;2023-09-30T05:30:46;100398.66;;;13.36;96.27
64683;BME280;51107;47.652;19.016;2023-09-30T05:33:14;100402.69;;;13.49;96.07
64683;BME280;51107;47.652;19.016;2023-09-30T05:35:42;100402.53;;;13.50;95.62
64683;BME280;51107;47.652;19.016;2023-09-30T05:38:11;100406.09;;;13.49;95.98
64683;BME280;51107;47.652;19.016;2023-09-30T05:40:40;100402.38;;;13.52;95.83
64683;BME280;51107;47.652;19.016;2023-09-30T05:43:09;100401.19;;;13.46;95.37
64683;BME280;51107;47.652;19.016;2023-09-30T05:45:42;100404.28;;;13.68;95.70
64683;BME280;51107;47.652;19.016;2023-09-30T05:48:18;100403.03;;;13.88;94.18
64683;BME280;51107;47.652;19.016;2023-09-30T05:50:47;100404.56;;;13.99;93.66
64683;BME280;51107;47.652;19.016;2023-09-30T05:53:15;100398.19;;;14.02;94.54
64683;BME280;51107;47.652;19.016;2023-09-30T05:55:43;100403.13;;;14.13;94.54
64683;BME280;51107;47.652;19.016;2023-09-30T05:58:14;100408.72;;;14.18;94.28
64683;BME280;51107;47.652;19.016;2023-09-30T06:00:44;100404.84;;;14.31;95.07
64683;BME280;51107;47.652;19.016;2023-09-30T06:03:13;100404.88;;;14.47;95.95
64683;BME280;51107;47.652;19.016;2023-09-30T06:05:41;100411.31;;;14.61;95.42
64683;BME280;51107;47.652;19.016;2023-09-30T06:08:10;100407.91;;;14.69;94.05
64683;BME280;51107;47.652;19.016;2023-09-30T06:10:42;100409.25;;;14.81;92.92
64683;BME280;51107;47.652;19.016;2023-09-30T06:13:11;100409.09;;;14.91;90.97
64683;BME280;51107;47.652;19.016;2023-09-30T06:15:41;100405.66;;;14.99;91.63
64683;BME280;51107;47.652;19.016;2023-09-30T06:18:10;100411.03;;;15.05;90.50
64683;BME280;51107;47.652;19.016;2023-09-30T06:20:42;100419.91;;;15.13;89.55
64683;BME280;51107;47.652;19.016;2023-09-30T06:23:10;100423.00;;;15.16;89.22
64683;BME280;51107;47.652;19.016;2023-09-30T06:25:39;100415.81;;;15.18;92.01
64683;BME280;51107;47.652;19.016;2023-09-30T06:28:11;100411.22;;;15.20;93.96
64683;BME280;51107;47.652;19.016;2023-09-30T06:30:41;100417.94;;;15.23;91.57
64683;BME280;51107;47.652;19.016;2023-09-30T06:33:11;100413.00;;;15.28;91.92
64683;BME280;51107;47.652;19.016;2023-09-30T06:35:42;100408.41;;;15.30;93.04
64683;BME280;51107;47.652;19.016;2023-09-30T06:38:19;100420.53;;;15.39;92.87
64683;BME280;51107;47.652;19.016;2023-09-30T06:40:47;100422.53;;;15.37;95.27
64683;BME280;51107;47.652;19.016;2023-09-30T06:43:16;100422.03;;;15.42;94.09
64683;BME280;51107;47.652;19.016;2023-09-30T06:45:45;100413.63;;;15.46;94.22
64683;BME280;51107;47.652;19.016;2023-09-30T06:48:15;100420.03;;;15.44;95.79
64683;BME280;51107;47.652;19.016;2023-09-30T06:50:48;100422.34;;;15.39;94.58
64683;BME280;51107;47.652;19.016;2023-09-30T06:53:20;100427.09;;;15.52;93.69
64683;BME280;51107;47.652;19.016;2023-09-30T06:55:49;100429.53;;;15.61;94.10
64683;BME280;51107;47.652;19.016;2023-09-30T06:58:19;100430.50;;;15.60;95.66
64683;BME280;51107;47.652;19.016;2023-09-30T07:00:51;100436.44;;;15.62;93.96
64683;BME280;51107;47.652;19.016;2023-09-30T07:03:20;100436.09;;;15.57;96.88
64683;BME280;51107;47.652;19.016;2023-09-30T07:05:53;100433.81;;;15.54;95.77
64683;BME280;51107;47.652;19.016;2023-09-30T07:08:22;100433.81;;;15.62;98.47
64683;BME280;51107;47.652;19.016;2023-09-30T07:10:50;100429.53;;;15.61;98.44
64683;BME280;51107;47.652;19.016;2023-09-30T07:13:21;100432.31;;;15.68;98.21
64683;BME280;51107;47.652;19.016;2023-09-30T07:15:49;100431.78;;;15.73;97.64
64683;BME280;51107;47.652;19.016;2023-09-30T07:18:18;100436.41;;;15.79;95.45
64683;BME280;51107;47.652;19.016;2023-09-30T07:20:47;100433.94;;;15.86;95.32
64683;BME280;51107;47.652;19.016;2023-09-30T07:23:15;100435.41;;;15.96;94.67
64683;BME280;51107;47.652;19.016;2023-09-30T07:25:48;100436.97;;;16.06;93.58
64683;BME280;51107;47.652;19.016;2023-09-30T07:28:16;100441.13;;;16.00;94.63
64683;BME280;51107;47.652;19.016;2023-09-30T07:30:45;100437.31;;;16.11;95.43
64683;BME280;51107;47.652;19.016;2023-09-30T07:33:13;100443.97;;;16.30;91.47
64683;BME280;51107;47.652;19.016;2023-09-30T07:35:41;100449.66;;;16.42;93.26
64683;BME280;51107;47.652;19.016;2023-09-30T07:38:10;100456.00;;;16.56;93.06
64683;BME280;51107;47.652;19.016;2023-09-30T07:40:38;100451.50;;;16.64;90.48
64683;BME280;51107;47.652;19.016;2023-09-30T07:43:07;100452.03;;;16.83;91.07
64683;BME280;51107;47.652;19.016;2023-09-30T07:45:35;100446.75;;;16.91;91.10
64683;BME280;51107;47.652;19.016;2023-09-30T07:48:04;100448.50;;;16.99;93.29
64683;BME280;51107;47.652;19.016;2023-09-30T07:50:33;100446.91;;;17.13;91.30
64683;BME280;51107;47.652;19.016;2023-09-30T07:53:02;100449.59;;;17.28;90.32
64683;BME280;51107;47.652;19.016;2023-09-30T07:55:34;100453.69;;;17.30;89.76
64683;BME280;51107;47.652;19.016;2023-09-30T07:58:02;100450.63;;;17.42;90.48
64683;BME280;51107;47.652;19.016;2023-09-30T08:00:31;100448.38;;;17.54;90.45
64683;BME280;51107;47.652;19.016;2023-09-30T08:03:02;100446.59;;;17.84;88.61
64683;BME280;51107;47.652;19.016;2023-09-30T08:05:30;100453.31;;;18.02;89.40
64683;BME280;51107;47.652;19.016;2023-09-30T08:07:59;100450.47;;;18.18;89.20
64683;BME280;51107;47.652;19.016;2023-09-30T08:10:30;100444.72;;;18.44;86.68
64683;BME280;51107;47.652;19.016;2023-09-30T08:12:59;100454.78;;;18.77;85.52
64683;BME280;51107;47.652;19.016;2023-09-30T08:15:30;100450.44;;;18.84;84.35
64683;BME280;51107;47.652;19.016;2023-09-30T08:17:59;100455.97;;;19.11;82.77
64683;BME280;51107;47.652;19.016;2023-09-30T08:20:27;100453.87;;;19.28;78.92
64683;BME280;51107;47.652;19.016;2023-09-30T08:22:56;100452.34;;;19.41;82.20
64683;BME280;51107;47.652;19.016;2023-09-30T08:25:24;100456.22;;;19.45;79.52
64683;BME280;51107;47.652;19.016;2023-09-30T08:27:53;100452.88;;;19.29;78.25
64683;BME280;51107;47.652;19.016;2023-09-30T08:30:22;100449.47;;;19.35;75.36
64683;BME280;51107;47.652;19.016;2023-09-30T08:32:50;100455.03;;;19.19;78.08
64683;BME280;51107;47.652;19.016;2023-09-30T08:35:18;100446.31;;;19.25;76.24
64683;BME280;51107;47.652;19.016;2023-09-30T08:37:47;100445.56;;;19.60;73.71
64683;BME280;51107;47.652;19.016;2023-09-30T08:40:20;100430.16;;;19.98;70.97
64683;BME280;51107;47.652;19.016;2023-09-30T08:42:51;100424.59;;;20.35;69.23
64683;BME280;51107;47.652;19.016;2023-09-30T08:45:20;100435.44;;;20.60;69.69
64683;BME280;51107;47.652;19.016;2023-09-30T08:47:49;100429.00;;;20.96;68.67
64683;BME280;51107;47.652;19.016;2023-09-30T08:50:19;100427.56;;;21.54;66.33
64683;BME280;51107;47.652;19.016;2023-09-30T08:52:49;100427.31;;;21.76;64.06
64683;BME280;51107;47.652;19.016;2023-09-30T08:55:18;100419.97;;;21.78;62.70
64683;BME280;51107;47.652;19.016;2023-09-30T08:57:47;100419.78;;;21.79;59.89
64683;BME280;51107;47.652;19.016;2023-09-30T09:00:16;100418.12;;;21.85;61.27
64683;BME280;51107;47.652;19.016;2023-09-30T09:02:44;100418.03;;;22.05;62.45
64683;BME280;51107;47.652;19.016;2023-09-30T09:05:13;100423.97;;;22.00;63.63
64683;BME280;51107;47.652;19.016;2023-09-30T09:07:43;100425.44;;;21.96;62.38
64683;BME280;51107;47.652;19.016;2023-09-30T09:10:12;100421.00;;;21.77;61.08
64683;BME280;51107;47.652;19.016;2023-09-30T09:12:54;100424.31;;;21.59;61.53
64683;BME280;51107;47.652;19.016;2023-09-30T09:15:28;100430.03;;;21.49;62.56
64683;BME280;51107;47.652;19.016;2023-09-30T09:17:57;100433.91;;;21.26;60.64
64683;BME280;51107;47.652;19.016;2023-09-30T09:20:25;100436.97;;;21.16;62.22
64683;BME280;51107;47.652;19.016;2023-09-30T09:22:55;100432.06;;;20.93;61.61
64683;BME280;51107;47.652;19.016;2023-09-30T09:25:24;100430.44;;;20.79;61.81
64683;BME280;51107;47.652;19.016;2023-09-30T09:27:53;100423.28;;;20.79;62.40
64683;BME280;51107;47.652;19.016;2023-09-30T09:30:26;100414.75;;;20.70;63.04
64683;BME280;51107;47.652;19.016;2023-09-30T09:33:02;100418.34;;;20.56;62.93
64683;BME280;51107;47.652;19.016;2023-09-30T09:35:32;100413.25;;;20.54;64.01
64683;BME280;51107;47.652;19.016;2023-09-30T09:38:06;100420.56;;;20.46;64.81
64683;BME280;51107;47.652;19.016;2023-09-30T09:40:36;100416.06;;;20.46;66.16
64683;BME280;51107;47.652;19.016;2023-09-30T09:43:09;100415.88;;;20.48;66.75
64683;BME280;51107;47.652;19.016;2023-09-30T09:45:37;100417.09;;;20.45;65.01
64683;BME280;51107;47.652;19.016;2023-09-30T09:48:06;100416.66;;;20.35;66.89
64683;BME280;51107;47.652;19.016;2023-09-30T09:50:35;100413.81;;;20.36;67.06
64683;BME280;51107;47.652;19.016;2023-09-30T09:53:04;100414.00;;;20.35;66.79
64683;BME280;51107;47.652;19.016;2023-09-30T09:55:33;100417.28;;;20.30;67.24
64683;BME280;51107;47.652;19.016;2023-09-30T09:58:05;100416.84;;;20.27;66.97
64683;BME280;51107;47.652;19.016;2023-09-30T10:00:35;100417.66;;;20.34;67.07
64683;BME280;51107;47.652;19.016;2023-09-30T10:03:04;100418.91;;;20.38;67.55
64683;BME280;51107;47.652;19.016;2023-09-30T10:05:33;100416.47;;;20.43;70.07
64683;BME280;51107;47.652;19.016;2023-09-30T10:08:08;100417.72;;;20.47;69.03
64683;BME280;51107;47.652;19.016;2023-09-30T10:10:39;100420.56;;;20.59;67.61
64683;BME280;51107;47.652;19.016;2023-09-30T10:19:23;100414.53;;;20.79;65.07
64683;BME280;51107;47.652;19.016;2023-09-30T10:24:50;100403.31;;;20.77;67.96
64683;BME280;51107;47.652;19.016;2023-09-30T10:35:22;100403.88;;;20.59;68.07
64683;BME280;51107;47.652;19.016;2023-09-30T10:40:51;100403.88;;;20.52;62.92
64683;BME280;51107;47.652;19.016;2023-09-30T10:43:37;100398.97;;;20.49;65.36
64683;BME280;51107;47.652;19.016;2023-09-30T10:48:54;100404.69;;;20.46;67.95
64683;BME280;51107;47.652;19.016;2023-09-30T10:51:25;100408.75;;;20.42;64.19
64683;BME280;51107;47.652;19.016;2023-09-30T10:53:54;100403.00;;;20.31;68.25
64683;BME280;51107;47.652;19.016;2023-09-30T10:56:32;100407.44;;;20.17;67.98
64683;BME280;51107;47.652;19.016;2023-09-30T10:59:01;100406.59;;;20.10;69.66
64683;BME280;51107;47.652;19.016;2023-09-30T11:01:34;100240.13;;;18.92;70.10
64683;BME280;51107;47.652;19.016;2023-09-30T11:04:04;100401.50;;;20.02;72.40
64683;BME280;51107;47.652;19.016;2023-09-30T11:06:34;100394.38;;;20.09;70.88
64683;BME280;51107;47.652;19.016;2023-09-30T11:09:03;100389.91;;;20.03;69.65
64683;BME280;51107;47.652;19.016;2023-09-30T11:11:42;100389.06;;;20.02;69.43
64683;BME280;51107;47.652;19.016;2023-09-30T11:14:31;100402.28;;;20.02;70.33
64683;BME280;51107;47.652;19.016;2023-09-30T11:17:02;100398.66;;;20.03;72.05
64683;BME280;51107;47.652;19.016;2023-09-30T11:19:47;100400.09;;;20.06;65.91
64683;BME280;51107;47.652;19.016;2023-09-30T11:22:17;100401.25;;;19.97;66.70
64683;BME280;51107;47.652;19.016;2023-09-30T11:24:46;100403.88;;;19.90;65.65
64683;BME280;51107;47.652;19.016;2023-09-30T11:27:22;100404.25;;;19.87;65.64
64683;BME280;51107;47.652;19.016;2023-09-30T11:29:55;100402.56;;;19.79;68.83
64683;BME280;51107;47.652;19.016;2023-09-30T11:32:27;100404.16;;;19.74;69.14
64683;BME280;51107;47.652;19.016;2023-09-30T11:34:57;100397.47;;;19.71;65.80
64683;BME280;51107;47.652;19.016;2023-09-30T11:37:32;100395.38;;;19.66;67.74
64683;BME280;51107;47.652;19.016;2023-09-30T11:40:14;100402.31;;;19.67;68.55
64683;BME280;51107;47.652;19.016;2023-09-30T11:43:09;100400.69;;;19.66;69.91
64683;BME280;51107;47.652;19.016;2023-09-30T11:45:44;100405.56;;;19.69;69.96
64683;BME280;51107;47.652;19.016;2023-09-30T11:48:19;100403.50;;;19.65;71.53
64683;BME280;51107;47.652;19.016;2023-09-30T11:50:49;100403.72;;;19.63;71.67
64683;BME280;51107;47.652;19.016;2023-09-30T11:53:19;100401.25;;;19.62;69.98
64683;BME280;51107;47.652;19.016;2023-09-30T11:55:49;100401.47;;;19.60;72.51
64683;BME280;51107;47.652;19.016;2023-09-30T11:58:17;100403.06;;;19.55;73.36
64683;BME280;51107;47.652;19.016;2023-09-30T12:00:47;100401.44;;;19.54;73.84
64683;BME280;51107;47.652;19.016;2023-09-30T12:03:19;100401.62;;;19.52;73.23
64683;BME280;51107;47.652;19.016;2023-09-30T12:05:48;100399.97;;;19.51;73.55
64683;BME280;51107;47.652;19.016;2023-09-30T12:08:17;100406.06;;;19.51;74.70
64683;BME280;51107;47.652;19.016;2023-09-30T12:10:45;100395.69;;;19.50;75.05
64683;BME280;51107;47.652;19.016;2023-09-30T12:13:14;100401.19;;;19.48;76.74
64683;BME280;51107;47.652;19.016;2023-09-30T12:15:43;100393.69;;;19.52;77.74
64683;BME280;51107;47.652;19.016;2023-09-30T12:18:12;100404.88;;;19.54;77.83
64683;BME280;51107;47.652;19.016;2023-09-30T12:20:45;100404.47;;;19.57;76.23
64683;BME280;51107;47.652;19.016;2023-09-30T12:23:13;100404.88;;;19.54;76.01
64683;BME280;51107;47.652;19.016;2023-09-30T12:25:41;100400.44;;;19.61;74.86
64683;BME280;51107;47.652;19.016;2023-09-30T12:28:10;100400.97;;;19.50;75.99
64683;BME280;51107;47.652;19.016;2023-09-30T12:30:38;100398.34;;;19.50;75.41
64683;BME280;51107;47.652;19.016;2023-09-30T12:33:08;100396.69;;;19.49;76.65
64683;BME280;51107;47.652;19.016;2023-09-30T12:35:36;100397.13;;;19.52;78.59
64683;BME280;51107;47.652;19.016;2023-09-30T12:38:05;100403.66;;;19.57;78.92
64683;BME280;51107;47.652;19.016;2023-09-30T12:40:33;100394.97;;;19.63;79.22
64683;BME280;51107;47.652;19.016;2023-09-30T12:43:01;100390.34;;;19.72;79.20
64683;BME280;51107;47.652;19.016;2023-09-30T12:45:30;100397.94;;;19.81;77.19
64683;BME280;51107;47.652;19.016;2023-09-30T12:47:58;100394.94;;;19.91;77.75
64683;BME280;51107;47.652;19.016;2023-09-30T12:50:27;100392.69;;;19.88;78.13
64683;BME280;51107;47.652;19.016;2023-09-30T12:52:55;100392.87;;;19.87;78.24
64683;BME280;51107;47.652;19.016;2023-09-30T12:55:23;100392.50;;;19.90;79.19
64683;BME280;51107;47.652;19.016;2023-09-30T12:57:53;100396.34;;;19.87;78.34
64683;BME280;51107;47.652;19.016;2023-09-30T13:00:22;100398.75;;;19.82;80.12
64683;BME280;51107;47.652;19.016;2023-09-30T13:02:51;100400.22;;;19.91;77.14
64683;BME280;51107;47.652;19.016;2023-09-30T13:05:19;100400.84;;;19.93;77.38
64683;BME280;51107;47.652;19.016;2023-09-30T13:07:49;100399.97;;;19.86;79.68
64683;BME280;51107;47.652;19.016;2023-09-30T13:10:17;100389.63;;;19.91;78.89
64683;BME280;51107;47.652;19.016;2023-09-30T13:12:45;100391.28;;;19.92;78.28
64683;BME280;51107;47.652;19.016;2023-09-30T13:15:14;100383.94;;;19.94;77.69